»·PEaware :: N206GH KRHV-KBUR

N206GH :: KRHV-KBUR

FLIGHT INFORMATION

Flight Status: Arrived
Operator: Privately registered:
United States
More flights under this callsign
Pilot: Gabor H. (24209)
Aircraft: CESSNA 206 STATIONAIR
(C206)
More flights by this aircraft type
Origin: KRHV Reid-Hillview
United States
Destination: KBUR Bob Hope-Burbank
United States
More flights between these airports :: More routes between these airports
Route: +DECOT V107 FIM FERN7
File this flight plan on PilotEdge
Remarks:
Altitude:
(Current/Filed)
15,000ft
Speed:
(Current/Filed)
160kts
Departed: 24-Aug-20 03:39 PM
Arrived: 24-Aug-20 05:29 PM
Distance/Time
Traveled:
252nm/1:50
Distance/Time
To Go:
Arrived

Flight Plot

Page will automatically refresh every two minutes.

Flight plan parsing failed; only flown route is shown


Map Options




Map Legend


Flown Route
Filed Route
Departure Airport
Arrival Airport
Navaid (VOR, NDB)
Fix

Horizontal Profiles

Position Reports

Time Latitude Longitude Heading Altitude Ground
Speed
24-Aug-20 15:20 37.338787 -121.820739 49 126ft 0kts
24-Aug-20 15:21 37.338787 -121.820739 49 126ft 0kts
24-Aug-20 15:22 37.338787 -121.820739 49 126ft 0kts
24-Aug-20 15:23 37.338787 -121.820739 49 126ft 0kts
24-Aug-20 15:24 37.338787 -121.820739 49 126ft 0kts
24-Aug-20 15:25 37.338787 -121.820739 49 126ft 0kts
24-Aug-20 15:26 37.338986 -121.820937 241 126ft 6kts
24-Aug-20 15:27 37.338285 -121.821940 226 129ft 1kts
24-Aug-20 15:28 37.336812 -121.821707 141 129ft 7kts
24-Aug-20 15:29 37.334927 -121.819941 145 130ft 5kts
24-Aug-20 15:30 37.333040 -121.818650 141 133ft 12kts
24-Aug-20 15:31 37.330708 -121.816430 134 136ft 4kts
24-Aug-20 15:31 37.330524 -121.815931 193 137ft 0kts
24-Aug-20 15:33 37.330524 -121.815931 193 137ft 0kts
24-Aug-20 15:34 37.330524 -121.815931 193 137ft 0kts
24-Aug-20 15:34 37.330524 -121.815931 193 137ft 0kts
24-Aug-20 15:36 37.330524 -121.815931 193 137ft 0kts
24-Aug-20 15:37 37.330388 -121.815936 176 137ft 1kts
24-Aug-20 15:37 37.330229 -121.815920 185 138ft 2kts
24-Aug-20 15:38 37.338345 -121.824126 321 362ft 97kts
24-Aug-20 15:39 37.357392 -121.842498 318 1898ft 84kts
24-Aug-20 15:40 37.376882 -121.859418 320 3233ft 88kts
24-Aug-20 15:41 37.397664 -121.876598 319 4535ft 92kts
24-Aug-20 15:42 37.419565 -121.894669 318 5801ft 97kts
24-Aug-20 15:43 37.439028 -121.867318 122 5997ft 166kts
24-Aug-20 15:44 37.411668 -121.820674 132 6283ft 156kts
24-Aug-20 15:45 37.386705 -121.780264 133 7370ft 140kts
24-Aug-20 15:46 37.363532 -121.742906 133 8468ft 132kts
24-Aug-20 15:47 37.341193 -121.706973 132 9508ft 130kts
24-Aug-20 15:48 37.318919 -121.671185 131 10505ft 129kts
24-Aug-20 15:49 37.296942 -121.635901 131 11497ft 127kts
24-Aug-20 15:50 37.275235 -121.601061 130 12491ft 125kts
24-Aug-20 15:51 37.253970 -121.566946 131 13480ft 123kts
24-Aug-20 15:52 37.233179 -121.533640 132 14466ft 120kts
24-Aug-20 15:53 37.211469 -121.499055 132 15015ft 145kts
24-Aug-20 15:54 37.184249 -121.455740 131 15011ft 165kts
24-Aug-20 15:55 37.155575 -121.410032 131 15010ft 166kts
24-Aug-20 15:56 37.126974 -121.364490 131 15013ft 166kts
24-Aug-20 15:57 37.098362 -121.319118 133 15016ft 165kts
24-Aug-20 15:58 37.068040 -121.275668 135 14628ft 172kts
24-Aug-20 15:59 37.035884 -121.230077 135 13115ft 171kts
24-Aug-20 16:00 37.005575 -121.187110 135 11593ft 162kts
24-Aug-20 16:01 36.977544 -121.147296 137 11004ft 141kts
24-Aug-20 16:02 36.950642 -121.109289 137 11005ft 149kts
24-Aug-20 16:03 36.922635 -121.069775 137 11005ft 156kts
24-Aug-20 16:04 36.894053 -121.029455 137 11010ft 156kts
24-Aug-20 16:05 36.864890 -120.988377 137 11011ft 157kts
24-Aug-20 16:06 36.835725 -120.947343 137 11009ft 158kts
24-Aug-20 16:07 36.806364 -120.906093 137 10991ft 159kts
24-Aug-20 16:08 36.776870 -120.864696 137 10981ft 159kts
24-Aug-20 16:09 36.747309 -120.823262 137 10971ft 160kts
24-Aug-20 16:10 36.717102 -120.781865 146 10959ft 158kts
24-Aug-20 16:11 36.680411 -120.752240 152 10954ft 157kts
24-Aug-20 16:12 36.642972 -120.723602 153 10947ft 158kts
24-Aug-20 16:13 36.605400 -120.695057 153 10947ft 158kts
24-Aug-20 16:14 36.567688 -120.666463 153 10947ft 159kts
24-Aug-20 16:15 36.529653 -120.637662 153 10947ft 160kts
24-Aug-20 16:16 36.491548 -120.608970 148 10944ft 158kts
24-Aug-20 16:17 36.454374 -120.580706 153 10945ft 157kts
24-Aug-20 16:18 36.416507 -120.552168 153 10952ft 161kts
24-Aug-20 16:19 36.378189 -120.523311 153 10952ft 161kts
24-Aug-20 16:20 36.339829 -120.494459 148 10951ft 161kts
24-Aug-20 16:21 36.302202 -120.466036 153 10948ft 158kts
24-Aug-20 16:22 36.264310 -120.437677 153 10961ft 159kts
24-Aug-20 16:23 36.226397 -120.409250 153 10969ft 158kts
24-Aug-20 16:24 36.188832 -120.381102 153 10973ft 157kts
24-Aug-20 16:25 36.151409 -120.353088 153 10974ft 157kts
24-Aug-20 16:26 36.113741 -120.324927 153 10966ft 158kts
24-Aug-20 16:27 36.075787 -120.296585 154 10958ft 159kts
24-Aug-20 16:28 36.037629 -120.268123 154 10950ft 160kts
24-Aug-20 16:29 35.999438 -120.239781 148 10943ft 158kts
24-Aug-20 16:30 35.961811 -120.211632 154 10953ft 159kts
24-Aug-20 16:31 35.923825 -120.183434 153 10963ft 158kts
24-Aug-20 16:32 35.887628 -120.156558 153 11049ft 157kts
24-Aug-20 16:33 35.850035 -120.128676 153 11052ft 158kts
24-Aug-20 16:34 35.812235 -120.100669 153 11053ft 158kts
24-Aug-20 16:35 35.774642 -120.072851 153 11057ft 157kts
24-Aug-20 16:36 35.737128 -120.045121 152 11064ft 157kts
24-Aug-20 16:37 35.699800 -120.017558 152 11074ft 156kts
24-Aug-20 16:38 35.662671 -119.990168 152 11081ft 155kts
24-Aug-20 16:39 35.626554 -119.960786 149 11071ft 156kts
24-Aug-20 16:40 35.590847 -119.929938 149 11060ft 157kts
24-Aug-20 16:41 35.555046 -119.898969 149 11049ft 157kts
24-Aug-20 16:42 35.519176 -119.867964 149 11038ft 158kts
24-Aug-20 16:43 35.483131 -119.836840 149 11030ft 158kts
24-Aug-20 16:44 35.446936 -119.805624 150 11020ft 159kts
24-Aug-20 16:45 35.411215 -119.774894 146 11007ft 155kts
24-Aug-20 16:46 35.375903 -119.744472 146 10999ft 154kts
24-Aug-20 16:47 35.340790 -119.714284 146 11005ft 154kts
24-Aug-20 16:48 35.305200 -119.683694 150 11019ft 158kts
24-Aug-20 16:49 35.269113 -119.652764 149 11027ft 158kts
24-Aug-20 16:50 35.232972 -119.621801 149 11031ft 158kts
24-Aug-20 16:51 35.196914 -119.590938 149 11029ft 158kts
24-Aug-20 16:52 35.160782 -119.560047 149 11020ft 158kts
24-Aug-20 16:53 35.124556 -119.529110 149 11010ft 159kts
24-Aug-20 16:54 35.088355 -119.498228 149 11006ft 158kts
24-Aug-20 16:55 35.052121 -119.467352 149 11006ft 158kts
24-Aug-20 16:56 35.016058 -119.436657 149 11013ft 158kts
24-Aug-20 16:57 34.979918 -119.405928 149 11022ft 157kts
24-Aug-20 16:58 34.944026 -119.375444 149 11026ft 157kts
24-Aug-20 16:59 34.908437 -119.345253 150 11025ft 157kts
24-Aug-20 17:00 34.872845 -119.315095 150 11028ft 158kts
24-Aug-20 17:01 34.836588 -119.284401 150 11038ft 158kts
24-Aug-20 17:02 34.800490 -119.253875 150 11057ft 157kts
24-Aug-20 17:03 34.764757 -119.223690 150 11079ft 156kts
24-Aug-20 17:04 34.729156 -119.193651 150 11099ft 155kts
24-Aug-20 17:05 34.693726 -119.163787 150 11106ft 155kts
24-Aug-20 17:06 34.658369 -119.134017 150 11105ft 155kts
24-Aug-20 17:07 34.622822 -119.104118 150 11096ft 156kts
24-Aug-20 17:08 34.587045 -119.074058 150 11081ft 156kts
24-Aug-20 17:09 34.551261 -119.044024 150 11082ft 156kts
24-Aug-20 17:10 34.515607 -119.014135 150 11082ft 156kts
24-Aug-20 17:11 34.479686 -118.984053 149 11082ft 157kts
24-Aug-20 17:12 34.443519 -118.953796 149 11082ft 158kts
24-Aug-20 17:13 34.406460 -118.922861 150 10304ft 158kts
24-Aug-20 17:14 34.370956 -118.893224 150 9298ft 154kts
24-Aug-20 17:15 34.334214 -118.866310 155 8290ft 154kts
24-Aug-20 17:16 34.297515 -118.841773 155 8018ft 151kts
24-Aug-20 17:18 34.283525 -118.795711 91 8018ft 168kts
24-Aug-20 17:19 34.285982 -118.739069 91 8011ft 168kts
24-Aug-20 17:20 34.288517 -118.681338 91 7180ft 172kts
24-Aug-20 17:21 34.290847 -118.625359 91 6168ft 161kts
24-Aug-20 17:22 34.292752 -118.574865 91 4974ft 146kts
24-Aug-20 17:23 34.289714 -118.523900 101 3923ft 151kts
24-Aug-20 17:24 34.282971 -118.474398 101 2910ft 148kts
24-Aug-20 17:25 34.274522 -118.426404 106 2315ft 142kts
24-Aug-20 17:26 34.258718 -118.385810 133 2342ft 115kts
24-Aug-20 17:27 34.235421 -118.366911 162 2047ft 80kts
24-Aug-20 17:28 34.213667 -118.360888 165 907ft 78kts
24-Aug-20 17:29 34.206015 -118.359640 241 780ft 0kts
24-Aug-20 17:30 34.205366 -118.359612 165 780ft 13kts
24-Aug-20 17:31 34.201765 -118.358954 234 780ft 9kts
24-Aug-20 17:32 34.201607 -118.360924 160 780ft 8kts
24-Aug-20 17:33 34.200927 -118.361023 345 780ft 0kts

Navigation Log

Ident Type
Flight plan parsing failed, navigation log unavailable